sensor_id;sensor_type;location;lat;lon;timestamp;P1;durP1;ratioP1;P2;durP2;ratioP2
40737;SDS011;54759;48.094;-1.628;2022-10-31T00:01:57;0.75;;;0.28;;
40737;SDS011;54759;48.094;-1.628;2022-10-31T00:05:00;0.50;;;0.30;;
40737;SDS011;54759;48.094;-1.628;2022-10-31T00:08:01;0.85;;;0.30;;
40737;SDS011;54759;48.094;-1.628;2022-10-31T00:14:04;0.20;;;0.20;;
40737;SDS011;54759;48.094;-1.628;2022-10-31T00:17:06;0.30;;;0.20;;
40737;SDS011;54759;48.094;-1.628;2022-10-31T00:23:10;0.43;;;0.30;;
40737;SDS011;54759;48.094;-1.628;2022-10-31T00:26:15;0.22;;;0.22;;
40737;SDS011;54759;48.094;-1.628;2022-10-31T00:29:17;0.22;;;0.20;;
40737;SDS011;54759;48.094;-1.628;2022-10-31T00:35:21;0.28;;;0.20;;
40737;SDS011;54759;48.094;-1.628;2022-10-31T00:38:22;0.25;;;0.25;;
40737;SDS011;54759;48.094;-1.628;2022-10-31T00:44:25;0.60;;;0.30;;
40737;SDS011;54759;48.094;-1.628;2022-10-31T00:50:28;0.65;;;0.20;;
40737;SDS011;54759;48.094;-1.628;2022-10-31T00:53:31;0.43;;;0.30;;
40737;SDS011;54759;48.094;-1.628;2022-10-31T00:56:36;0.40;;;0.20;;
40737;SDS011;54759;48.094;-1.628;2022-10-31T00:59:38;0.88;;;0.20;;
40737;SDS011;54759;48.094;-1.628;2022-10-31T01:02:39;0.38;;;0.30;;
40737;SDS011;54759;48.094;-1.628;2022-10-31T01:05:44;0.75;;;0.35;;
40737;SDS011;54759;48.094;-1.628;2022-10-31T01:08:46;0.40;;;0.30;;
40737;SDS011;54759;48.094;-1.628;2022-10-31T01:11:48;0.40;;;0.20;;
40737;SDS011;54759;48.094;-1.628;2022-10-31T01:14:50;0.30;;;0.30;;
40737;SDS011;54759;48.094;-1.628;2022-10-31T01:17:52;0.30;;;0.30;;
40737;SDS011;54759;48.094;-1.628;2022-10-31T01:20:58;0.43;;;0.22;;
40737;SDS011;54759;48.094;-1.628;2022-10-31T01:24:01;0.30;;;0.30;;
40737;SDS011;54759;48.094;-1.628;2022-10-31T01:27:03;0.35;;;0.20;;
40737;SDS011;54759;48.094;-1.628;2022-10-31T01:30:08;0.30;;;0.20;;
40737;SDS011;54759;48.094;-1.628;2022-10-31T01:33:10;0.50;;;0.30;;
40737;SDS011;54759;48.094;-1.628;2022-10-31T01:39:15;0.28;;;0.20;;
40737;SDS011;54759;48.094;-1.628;2022-10-31T01:42:18;0.20;;;0.20;;
40737;SDS011;54759;48.094;-1.628;2022-10-31T01:45:21;0.30;;;0.13;;
40737;SDS011;54759;48.094;-1.628;2022-10-31T01:48:23;0.30;;;0.30;;
40737;SDS011;54759;48.094;-1.628;2022-10-31T01:51:33;0.55;;;0.30;;
40737;SDS011;54759;48.094;-1.628;2022-10-31T01:54:39;0.47;;;0.30;;
40737;SDS011;54759;48.094;-1.628;2022-10-31T01:57:50;0.55;;;0.20;;
40737;SDS011;54759;48.094;-1.628;2022-10-31T02:00:55;0.35;;;0.28;;
40737;SDS011;54759;48.094;-1.628;2022-10-31T02:04:05;0.95;;;0.10;;
40737;SDS011;54759;48.094;-1.628;2022-10-31T02:07:08;0.35;;;0.30;;
40737;SDS011;54759;48.094;-1.628;2022-10-31T02:10:14;0.20;;;0.20;;
40737;SDS011;54759;48.094;-1.628;2022-10-31T02:13:15;0.22;;;0.20;;
40737;SDS011;54759;48.094;-1.628;2022-10-31T02:16:22;0.30;;;0.17;;
40737;SDS011;54759;48.094;-1.628;2022-10-31T02:19:26;0.30;;;0.10;;
40737;SDS011;54759;48.094;-1.628;2022-10-31T02:22:36;0.13;;;0.13;;
40737;SDS011;54759;48.094;-1.628;2022-10-31T02:26:01;0.17;;;0.10;;
40737;SDS011;54759;48.094;-1.628;2022-10-31T02:29:26;0.13;;;0.13;;
40737;SDS011;54759;48.094;-1.628;2022-10-31T02:32:47;0.20;;;0.20;;
40737;SDS011;54759;48.094;-1.628;2022-10-31T02:35:57;0.30;;;0.20;;
40737;SDS011;54759;48.094;-1.628;2022-10-31T02:39:06;0.20;;;0.10;;
40737;SDS011;54759;48.094;-1.628;2022-10-31T02:42:17;0.10;;;0.10;;
40737;SDS011;54759;48.094;-1.628;2022-10-31T02:45:28;0.20;;;0.10;;
40737;SDS011;54759;48.094;-1.628;2022-10-31T02:48:34;0.20;;;0.20;;
40737;SDS011;54759;48.094;-1.628;2022-10-31T02:51:40;0.32;;;0.25;;
40737;SDS011;54759;48.094;-1.628;2022-10-31T02:54:44;0.30;;;0.20;;
40737;SDS011;54759;48.094;-1.628;2022-10-31T02:57:48;0.20;;;0.20;;
40737;SDS011;54759;48.094;-1.628;2022-10-31T03:00:59;0.10;;;0.10;;
40737;SDS011;54759;48.094;-1.628;2022-10-31T03:04:16;0.20;;;0.20;;
40737;SDS011;54759;48.094;-1.628;2022-10-31T03:07:30;0.10;;;0.10;;
40737;SDS011;54759;48.094;-1.628;2022-10-31T03:10:41;0.10;;;0.10;;
40737;SDS011;54759;48.094;-1.628;2022-10-31T03:13:48;0.20;;;0.20;;
40737;SDS011;54759;48.094;-1.628;2022-10-31T03:16:57;0.20;;;0.10;;
40737;SDS011;54759;48.094;-1.628;2022-10-31T03:20:06;0.10;;;0.10;;
40737;SDS011;54759;48.094;-1.628;2022-10-31T03:23:11;0.10;;;0.10;;
40737;SDS011;54759;48.094;-1.628;2022-10-31T03:26:15;0.10;;;0.10;;
40737;SDS011;54759;48.094;-1.628;2022-10-31T03:29:18;0.10;;;0.10;;
40737;SDS011;54759;48.094;-1.628;2022-10-31T03:32:27;0.10;;;0.10;;
40737;SDS011;54759;48.094;-1.628;2022-10-31T03:35:34;0.10;;;0.10;;
40737;SDS011;54759;48.094;-1.628;2022-10-31T03:38:39;0.22;;;0.20;;
40737;SDS011;54759;48.094;-1.628;2022-10-31T03:41:56;0.10;;;0.10;;
40737;SDS011;54759;48.094;-1.628;2022-10-31T03:45:03;0.30;;;0.10;;
40737;SDS011;54759;48.094;-1.628;2022-10-31T03:48:08;0.10;;;0.10;;
40737;SDS011;54759;48.094;-1.628;2022-10-31T03:51:13;0.10;;;0.10;;
40737;SDS011;54759;48.094;-1.628;2022-10-31T03:54:20;0.20;;;0.20;;
40737;SDS011;54759;48.094;-1.628;2022-10-31T03:57:29;0.10;;;0.10;;
40737;SDS011;54759;48.094;-1.628;2022-10-31T04:00:38;0.10;;;0.10;;
40737;SDS011;54759;48.094;-1.628;2022-10-31T04:03:47;0.10;;;0.10;;
40737;SDS011;54759;48.094;-1.628;2022-10-31T04:06:50;0.10;;;0.00;;
40737;SDS011;54759;48.094;-1.628;2022-10-31T04:09:53;0.10;;;0.10;;
40737;SDS011;54759;48.094;-1.628;2022-10-31T04:12:57;0.10;;;0.10;;
40737;SDS011;54759;48.094;-1.628;2022-10-31T04:16:09;0.10;;;0.10;;
40737;SDS011;54759;48.094;-1.628;2022-10-31T04:19:17;0.10;;;0.10;;
40737;SDS011;54759;48.094;-1.628;2022-10-31T04:22:19;0.10;;;0.10;;
40737;SDS011;54759;48.094;-1.628;2022-10-31T04:25:21;0.10;;;0.10;;
40737;SDS011;54759;48.094;-1.628;2022-10-31T04:28:22;0.10;;;0.10;;
40737;SDS011;54759;48.094;-1.628;2022-10-31T04:31:25;0.10;;;0.10;;
40737;SDS011;54759;48.094;-1.628;2022-10-31T04:34:29;0.17;;;0.17;;
40737;SDS011;54759;48.094;-1.628;2022-10-31T04:37:31;0.10;;;0.10;;
40737;SDS011;54759;48.094;-1.628;2022-10-31T04:40:35;0.10;;;0.10;;
40737;SDS011;54759;48.094;-1.628;2022-10-31T04:43:54;0.10;;;0.10;;
40737;SDS011;54759;48.094;-1.628;2022-10-31T04:49:57;0.00;;;0.00;;
40737;SDS011;54759;48.094;-1.628;2022-10-31T04:52:59;0.00;;;0.00;;
40737;SDS011;54759;48.094;-1.628;2022-10-31T04:56:04;0.10;;;0.10;;
40737;SDS011;54759;48.094;-1.628;2022-10-31T04:59:14;0.10;;;0.10;;
40737;SDS011;54759;48.094;-1.628;2022-10-31T05:02:23;0.13;;;0.10;;
40737;SDS011;54759;48.094;-1.628;2022-10-31T05:05:30;0.05;;;0.05;;
40737;SDS011;54759;48.094;-1.628;2022-10-31T05:08:35;0.10;;;0.10;;
40737;SDS011;54759;48.094;-1.628;2022-10-31T05:11:39;0.10;;;0.10;;
40737;SDS011;54759;48.094;-1.628;2022-10-31T05:14:55;0.10;;;0.10;;
40737;SDS011;54759;48.094;-1.628;2022-10-31T05:18:16;0.05;;;0.05;;
40737;SDS011;54759;48.094;-1.628;2022-10-31T05:21:34;0.10;;;0.10;;
40737;SDS011;54759;48.094;-1.628;2022-10-31T05:24:37;0.10;;;0.10;;
40737;SDS011;54759;48.094;-1.628;2022-10-31T05:27:39;0.10;;;0.10;;
40737;SDS011;54759;48.094;-1.628;2022-10-31T05:30:41;0.10;;;0.10;;
40737;SDS011;54759;48.094;-1.628;2022-10-31T05:33:46;0.10;;;0.10;;
40737;SDS011;54759;48.094;-1.628;2022-10-31T05:37:07;0.10;;;0.10;;
40737;SDS011;54759;48.094;-1.628;2022-10-31T05:40:10;0.10;;;0.10;;
40737;SDS011;54759;48.094;-1.628;2022-10-31T05:43:13;0.10;;;0.10;;
40737;SDS011;54759;48.094;-1.628;2022-10-31T05:46:15;0.10;;;0.10;;
40737;SDS011;54759;48.094;-1.628;2022-10-31T05:49:34;0.10;;;0.10;;
40737;SDS011;54759;48.094;-1.628;2022-10-31T05:52:40;0.10;;;0.10;;
40737;SDS011;54759;48.094;-1.628;2022-10-31T05:55:58;0.10;;;0.10;;
40737;SDS011;54759;48.094;-1.628;2022-10-31T05:58:59;0.10;;;0.10;;
40737;SDS011;54759;48.094;-1.628;2022-10-31T06:02:01;0.15;;;0.13;;
40737;SDS011;54759;48.094;-1.628;2022-10-31T06:05:23;0.10;;;0.10;;
40737;SDS011;54759;48.094;-1.628;2022-10-31T06:08:26;0.10;;;0.10;;
40737;SDS011;54759;48.094;-1.628;2022-10-31T06:11:30;0.10;;;0.10;;
40737;SDS011;54759;48.094;-1.628;2022-10-31T06:14:52;0.10;;;0.10;;
40737;SDS011;54759;48.094;-1.628;2022-10-31T06:21:00;0.20;;;0.20;;
40737;SDS011;54759;48.094;-1.628;2022-10-31T06:24:02;0.20;;;0.10;;
40737;SDS011;54759;48.094;-1.628;2022-10-31T06:27:25;0.10;;;0.10;;
40737;SDS011;54759;48.094;-1.628;2022-10-31T06:30:27;0.10;;;0.10;;
40737;SDS011;54759;48.094;-1.628;2022-10-31T06:33:29;0.10;;;0.10;;
40737;SDS011;54759;48.094;-1.628;2022-10-31T06:36:34;0.10;;;0.10;;
40737;SDS011;54759;48.094;-1.628;2022-10-31T06:39:39;0.10;;;0.10;;
40737;SDS011;54759;48.094;-1.628;2022-10-31T06:42:44;0.10;;;0.10;;
40737;SDS011;54759;48.094;-1.628;2022-10-31T06:45:46;0.10;;;0.10;;
40737;SDS011;54759;48.094;-1.628;2022-10-31T06:48:56;0.10;;;0.10;;
40737;SDS011;54759;48.094;-1.628;2022-10-31T06:52:14;0.20;;;0.20;;
40737;SDS011;54759;48.094;-1.628;2022-10-31T06:55:16;0.17;;;0.17;;
40737;SDS011;54759;48.094;-1.628;2022-10-31T06:58:18;0.10;;;0.10;;
40737;SDS011;54759;48.094;-1.628;2022-10-31T07:01:22;0.10;;;0.10;;
40737;SDS011;54759;48.094;-1.628;2022-10-31T07:04:24;0.10;;;0.10;;
40737;SDS011;54759;48.094;-1.628;2022-10-31T07:07:25;0.10;;;0.10;;
40737;SDS011;54759;48.094;-1.628;2022-10-31T07:10:28;0.10;;;0.10;;
40737;SDS011;54759;48.094;-1.628;2022-10-31T07:13:40;0.20;;;0.20;;
40737;SDS011;54759;48.094;-1.628;2022-10-31T07:16:41;0.13;;;0.13;;
40737;SDS011;54759;48.094;-1.628;2022-10-31T07:19:49;0.10;;;0.10;;
40737;SDS011;54759;48.094;-1.628;2022-10-31T07:22:51;0.00;;;0.00;;
40737;SDS011;54759;48.094;-1.628;2022-10-31T07:25:54;0.10;;;0.10;;
40737;SDS011;54759;48.094;-1.628;2022-10-31T07:29:04;0.10;;;0.10;;
40737;SDS011;54759;48.094;-1.628;2022-10-31T07:32:06;0.00;;;0.00;;
40737;SDS011;54759;48.094;-1.628;2022-10-31T07:35:12;0.10;;;0.10;;
40737;SDS011;54759;48.094;-1.628;2022-10-31T07:38:27;0.10;;;0.10;;
40737;SDS011;54759;48.094;-1.628;2022-10-31T07:41:29;0.20;;;0.20;;
40737;SDS011;54759;48.094;-1.628;2022-10-31T07:44:31;0.10;;;0.10;;
40737;SDS011;54759;48.094;-1.628;2022-10-31T07:47:52;0.10;;;0.10;;
40737;SDS011;54759;48.094;-1.628;2022-10-31T07:51:14;0.20;;;0.10;;
40737;SDS011;54759;48.094;-1.628;2022-10-31T07:54:34;0.20;;;0.20;;
40737;SDS011;54759;48.094;-1.628;2022-10-31T07:57:36;0.80;;;0.20;;
40737;SDS011;54759;48.094;-1.628;2022-10-31T08:00:39;1.25;;;0.20;;
40737;SDS011;54759;48.094;-1.628;2022-10-31T08:03:43;0.10;;;0.10;;
40737;SDS011;54759;48.094;-1.628;2022-10-31T08:07:04;0.10;;;0.10;;
40737;SDS011;54759;48.094;-1.628;2022-10-31T08:10:09;0.40;;;0.20;;
40737;SDS011;54759;48.094;-1.628;2022-10-31T08:13:11;0.10;;;0.10;;
40737;SDS011;54759;48.094;-1.628;2022-10-31T08:16:18;0.95;;;0.10;;
40737;SDS011;54759;48.094;-1.628;2022-10-31T08:19:27;0.10;;;0.10;;
40737;SDS011;54759;48.094;-1.628;2022-10-31T08:22:29;0.40;;;0.20;;
40737;SDS011;54759;48.094;-1.628;2022-10-31T08:25:33;0.15;;;0.15;;
40737;SDS011;54759;48.094;-1.628;2022-10-31T08:28:39;0.17;;;0.17;;
40737;SDS011;54759;48.094;-1.628;2022-10-31T08:31:42;0.20;;;0.20;;
40737;SDS011;54759;48.094;-1.628;2022-10-31T08:35:03;0.63;;;0.17;;
40737;SDS011;54759;48.094;-1.628;2022-10-31T08:38:24;0.35;;;0.10;;
40737;SDS011;54759;48.094;-1.628;2022-10-31T08:41:26;0.20;;;0.20;;
40737;SDS011;54759;48.094;-1.628;2022-10-31T08:44:28;0.20;;;0.10;;
40737;SDS011;54759;48.094;-1.628;2022-10-31T08:47:30;4.15;;;0.30;;
40737;SDS011;54759;48.094;-1.628;2022-10-31T08:50:33;0.22;;;0.13;;
40737;SDS011;54759;48.094;-1.628;2022-10-31T08:53:36;0.17;;;0.17;;
40737;SDS011;54759;48.094;-1.628;2022-10-31T08:56:57;0.10;;;0.08;;
40737;SDS011;54759;48.094;-1.628;2022-10-31T09:00:17;0.10;;;0.10;;
40737;SDS011;54759;48.094;-1.628;2022-10-31T09:03:39;0.20;;;0.20;;
40737;SDS011;54759;48.094;-1.628;2022-10-31T09:06:41;0.20;;;0.20;;
40737;SDS011;54759;48.094;-1.628;2022-10-31T09:09:56;0.10;;;0.10;;
40737;SDS011;54759;48.094;-1.628;2022-10-31T09:12:58;0.20;;;0.10;;
40737;SDS011;54759;48.094;-1.628;2022-10-31T09:16:14;0.20;;;0.20;;
40737;SDS011;54759;48.094;-1.628;2022-10-31T09:19:16;0.55;;;0.20;;
40737;SDS011;54759;48.094;-1.628;2022-10-31T09:22:20;0.30;;;0.20;;
40737;SDS011;54759;48.094;-1.628;2022-10-31T09:25:21;0.17;;;0.17;;
40737;SDS011;54759;48.094;-1.628;2022-10-31T09:28:34;4.80;;;0.30;;
40737;SDS011;54759;48.094;-1.628;2022-10-31T09:31:42;0.20;;;0.20;;
40737;SDS011;54759;48.094;-1.628;2022-10-31T09:34:59;0.20;;;0.20;;
40737;SDS011;54759;48.094;-1.628;2022-10-31T09:38:03;0.20;;;0.20;;
40737;SDS011;54759;48.094;-1.628;2022-10-31T09:41:08;0.10;;;0.10;;
40737;SDS011;54759;48.094;-1.628;2022-10-31T09:44:24;0.25;;;0.25;;
40737;SDS011;54759;48.094;-1.628;2022-10-31T09:47:36;0.73;;;0.20;;
40737;SDS011;54759;48.094;-1.628;2022-10-31T09:51:05;0.55;;;0.20;;
40737;SDS011;54759;48.094;-1.628;2022-10-31T09:54:19;0.20;;;0.10;;
40737;SDS011;54759;48.094;-1.628;2022-10-31T09:57:27;0.30;;;0.20;;
40737;SDS011;54759;48.094;-1.628;2022-10-31T10:00:32;0.32;;;0.30;;
40737;SDS011;54759;48.094;-1.628;2022-10-31T10:03:35;1.15;;;0.30;;
40737;SDS011;54759;48.094;-1.628;2022-10-31T10:07:02;0.20;;;0.20;;
40737;SDS011;54759;48.094;-1.628;2022-10-31T10:10:38;0.25;;;0.25;;
40737;SDS011;54759;48.094;-1.628;2022-10-31T10:14:10;0.25;;;0.20;;
40737;SDS011;54759;48.094;-1.628;2022-10-31T10:17:22;0.30;;;0.20;;
40737;SDS011;54759;48.094;-1.628;2022-10-31T10:20:35;0.30;;;0.30;;
40737;SDS011;54759;48.094;-1.628;2022-10-31T10:23:45;0.38;;;0.30;;
40737;SDS011;54759;48.094;-1.628;2022-10-31T10:27:00;0.30;;;0.30;;
40737;SDS011;54759;48.094;-1.628;2022-10-31T10:30:13;0.82;;;0.35;;
40737;SDS011;54759;48.094;-1.628;2022-10-31T10:33:18;0.95;;;0.38;;
40737;SDS011;54759;48.094;-1.628;2022-10-31T10:36:26;0.30;;;0.30;;
40737;SDS011;54759;48.094;-1.628;2022-10-31T10:39:35;0.40;;;0.35;;
40737;SDS011;54759;48.094;-1.628;2022-10-31T10:42:39;0.40;;;0.30;;
40737;SDS011;54759;48.094;-1.628;2022-10-31T10:49:32;0.95;;;0.40;;
40737;SDS011;54759;48.094;-1.628;2022-10-31T10:52:42;0.47;;;0.47;;
40737;SDS011;54759;48.094;-1.628;2022-10-31T10:55:53;0.50;;;0.40;;
40737;SDS011;54759;48.094;-1.628;2022-10-31T10:58:59;1.40;;;0.30;;
40737;SDS011;54759;48.094;-1.628;2022-10-31T11:02:00;0.70;;;0.50;;
40737;SDS011;54759;48.094;-1.628;2022-10-31T11:05:08;0.40;;;0.30;;
40737;SDS011;54759;48.094;-1.628;2022-10-31T11:08:26;0.50;;;0.30;;
40737;SDS011;54759;48.094;-1.628;2022-10-31T11:11:29;0.55;;;0.50;;
40737;SDS011;54759;48.094;-1.628;2022-10-31T11:14:31;0.32;;;0.30;;
40737;SDS011;54759;48.094;-1.628;2022-10-31T11:17:37;0.70;;;0.47;;
40737;SDS011;54759;48.094;-1.628;2022-10-31T11:20:41;0.68;;;0.43;;
40737;SDS011;54759;48.094;-1.628;2022-10-31T11:24:01;0.77;;;0.32;;
40737;SDS011;54759;48.094;-1.628;2022-10-31T11:27:15;0.82;;;0.60;;
40737;SDS011;54759;48.094;-1.628;2022-10-31T11:30:21;0.30;;;0.30;;
40737;SDS011;54759;48.094;-1.628;2022-10-31T11:36:28;0.80;;;0.50;;
40737;SDS011;54759;48.094;-1.628;2022-10-31T11:39:32;0.77;;;0.50;;
40737;SDS011;54759;48.094;-1.628;2022-10-31T11:42:43;0.90;;;0.50;;
40737;SDS011;54759;48.094;-1.628;2022-10-31T11:45:45;0.80;;;0.57;;
40737;SDS011;54759;48.094;-1.628;2022-10-31T11:48:48;0.70;;;0.50;;
40737;SDS011;54759;48.094;-1.628;2022-10-31T11:51:53;1.05;;;0.70;;
40737;SDS011;54759;48.094;-1.628;2022-10-31T11:54:59;0.65;;;0.60;;
40737;SDS011;54759;48.094;-1.628;2022-10-31T11:58:04;0.45;;;0.45;;
40737;SDS011;54759;48.094;-1.628;2022-10-31T12:01:22;0.73;;;0.50;;
40737;SDS011;54759;48.094;-1.628;2022-10-31T12:04:31;0.43;;;0.40;;
40737;SDS011;54759;48.094;-1.628;2022-10-31T12:07:38;0.90;;;0.70;;
40737;SDS011;54759;48.094;-1.628;2022-10-31T12:13:50;0.80;;;0.80;;
40737;SDS011;54759;48.094;-1.628;2022-10-31T12:17:05;1.27;;;0.80;;
40737;SDS011;54759;48.094;-1.628;2022-10-31T12:20:17;1.52;;;1.05;;
40737;SDS011;54759;48.094;-1.628;2022-10-31T12:23:27;0.60;;;0.52;;
40737;SDS011;54759;48.094;-1.628;2022-10-31T12:26:41;0.70;;;0.60;;
40737;SDS011;54759;48.094;-1.628;2022-10-31T12:29:52;0.70;;;0.52;;
40737;SDS011;54759;48.094;-1.628;2022-10-31T12:33:14;0.82;;;0.68;;
40737;SDS011;54759;48.094;-1.628;2022-10-31T12:36:31;0.80;;;0.80;;
40737;SDS011;54759;48.094;-1.628;2022-10-31T12:39:41;0.70;;;0.60;;
40737;SDS011;54759;48.094;-1.628;2022-10-31T12:42:51;0.85;;;0.60;;
40737;SDS011;54759;48.094;-1.628;2022-10-31T12:46:03;0.70;;;0.70;;
40737;SDS011;54759;48.094;-1.628;2022-10-31T12:49:15;0.80;;;0.80;;
40737;SDS011;54759;48.094;-1.628;2022-10-31T12:52:32;0.73;;;0.60;;
40737;SDS011;54759;48.094;-1.628;2022-10-31T12:55:43;0.98;;;0.80;;
40737;SDS011;54759;48.094;-1.628;2022-10-31T12:58:55;0.90;;;0.80;;
40737;SDS011;54759;48.094;-1.628;2022-10-31T13:02:04;0.85;;;0.82;;
40737;SDS011;54759;48.094;-1.628;2022-10-31T13:05:14;0.77;;;0.70;;
40737;SDS011;54759;48.094;-1.628;2022-10-31T13:08:21;0.80;;;0.73;;
40737;SDS011;54759;48.094;-1.628;2022-10-31T13:11:28;1.13;;;0.70;;
40737;SDS011;54759;48.094;-1.628;2022-10-31T13:14:35;0.88;;;0.80;;
40737;SDS011;54759;48.094;-1.628;2022-10-31T13:17:41;0.98;;;0.70;;
40737;SDS011;54759;48.094;-1.628;2022-10-31T13:20:46;1.27;;;0.90;;
40737;SDS011;54759;48.094;-1.628;2022-10-31T13:23:56;0.90;;;0.80;;
40737;SDS011;54759;48.094;-1.628;2022-10-31T13:27:02;1.25;;;0.70;;
40737;SDS011;54759;48.094;-1.628;2022-10-31T13:30:13;1.00;;;0.68;;
40737;SDS011;54759;48.094;-1.628;2022-10-31T13:33:19;1.10;;;0.77;;
40737;SDS011;54759;48.094;-1.628;2022-10-31T13:36:27;2.15;;;1.00;;
40737;SDS011;54759;48.094;-1.628;2022-10-31T13:39:39;1.08;;;0.90;;
40737;SDS011;54759;48.094;-1.628;2022-10-31T13:42:54;1.60;;;1.00;;
40737;SDS011;54759;48.094;-1.628;2022-10-31T13:46:01;0.93;;;0.82;;
40737;SDS011;54759;48.094;-1.628;2022-10-31T13:49:03;1.30;;;0.90;;
40737;SDS011;54759;48.094;-1.628;2022-10-31T13:52:23;1.30;;;0.90;;
40737;SDS011;54759;48.094;-1.628;2022-10-31T13:55:35;1.40;;;1.00;;
40737;SDS011;54759;48.094;-1.628;2022-10-31T13:58:38;2.53;;;1.02;;
40737;SDS011;54759;48.094;-1.628;2022-10-31T14:01:47;1.55;;;0.82;;
40737;SDS011;54759;48.094;-1.628;2022-10-31T14:04:52;1.33;;;0.85;;
40737;SDS011;54759;48.094;-1.628;2022-10-31T14:07:58;1.35;;;1.00;;
40737;SDS011;54759;48.094;-1.628;2022-10-31T14:11:04;1.27;;;1.00;;
40737;SDS011;54759;48.094;-1.628;2022-10-31T14:14:08;1.60;;;1.25;;
40737;SDS011;54759;48.094;-1.628;2022-10-31T14:17:17;1.33;;;1.00;;
40737;SDS011;54759;48.094;-1.628;2022-10-31T14:20:24;1.23;;;1.00;;
40737;SDS011;54759;48.094;-1.628;2022-10-31T14:23:35;1.42;;;1.10;;
40737;SDS011;54759;48.094;-1.628;2022-10-31T14:26:50;1.17;;;1.00;;
40737;SDS011;54759;48.094;-1.628;2022-10-31T14:29:53;1.00;;;0.90;;
40737;SDS011;54759;48.094;-1.628;2022-10-31T14:32:57;1.50;;;1.02;;
40737;SDS011;54759;48.094;-1.628;2022-10-31T14:36:03;1.77;;;1.10;;
40737;SDS011;54759;48.094;-1.628;2022-10-31T14:39:11;2.25;;;1.30;;
40737;SDS011;54759;48.094;-1.628;2022-10-31T14:42:23;1.30;;;1.10;;
40737;SDS011;54759;48.094;-1.628;2022-10-31T14:45:38;1.52;;;1.08;;
40737;SDS011;54759;48.094;-1.628;2022-10-31T14:48:53;1.80;;;1.27;;
40737;SDS011;54759;48.094;-1.628;2022-10-31T14:52:10;1.35;;;1.00;;
40737;SDS011;54759;48.094;-1.628;2022-10-31T14:55:15;2.97;;;1.08;;
40737;SDS011;54759;48.094;-1.628;2022-10-31T14:58:19;1.40;;;1.02;;
40737;SDS011;54759;48.094;-1.628;2022-10-31T15:01:25;2.17;;;1.30;;
40737;SDS011;54759;48.094;-1.628;2022-10-31T15:04:29;1.40;;;1.00;;
40737;SDS011;54759;48.094;-1.628;2022-10-31T15:07:33;2.28;;;1.40;;
40737;SDS011;54759;48.094;-1.628;2022-10-31T15:10:39;1.80;;;1.30;;
40737;SDS011;54759;48.094;-1.628;2022-10-31T15:13:47;2.00;;;1.10;;
40737;SDS011;54759;48.094;-1.628;2022-10-31T15:16:49;1.80;;;1.27;;
40737;SDS011;54759;48.094;-1.628;2022-10-31T15:19:52;1.77;;;0.95;;
40737;SDS011;54759;48.094;-1.628;2022-10-31T15:22:55;1.45;;;1.00;;
40737;SDS011;54759;48.094;-1.628;2022-10-31T15:25:59;2.53;;;1.13;;
40737;SDS011;54759;48.094;-1.628;2022-10-31T15:29:02;2.65;;;1.73;;
40737;SDS011;54759;48.094;-1.628;2022-10-31T15:32:16;1.35;;;1.15;;
40737;SDS011;54759;48.094;-1.628;2022-10-31T15:35:22;2.05;;;0.98;;
40737;SDS011;54759;48.094;-1.628;2022-10-31T15:38:27;1.55;;;1.13;;
40737;SDS011;54759;48.094;-1.628;2022-10-31T15:41:31;1.20;;;0.85;;
40737;SDS011;54759;48.094;-1.628;2022-10-31T15:44:37;1.38;;;0.98;;
40737;SDS011;54759;48.094;-1.628;2022-10-31T15:47:44;1.25;;;0.98;;
40737;SDS011;54759;48.094;-1.628;2022-10-31T15:50:48;2.33;;;1.08;;
40737;SDS011;54759;48.094;-1.628;2022-10-31T15:53:53;0.98;;;0.88;;
40737;SDS011;54759;48.094;-1.628;2022-10-31T15:56:55;1.67;;;1.10;;
40737;SDS011;54759;48.094;-1.628;2022-10-31T15:59:57;1.20;;;0.70;;
40737;SDS011;54759;48.094;-1.628;2022-10-31T16:03:03;1.23;;;0.85;;
40737;SDS011;54759;48.094;-1.628;2022-10-31T16:06:17;1.15;;;0.80;;
40737;SDS011;54759;48.094;-1.628;2022-10-31T16:09:22;1.35;;;0.88;;
40737;SDS011;54759;48.094;-1.628;2022-10-31T16:12:25;1.50;;;0.95;;
40737;SDS011;54759;48.094;-1.628;2022-10-31T16:15:31;1.13;;;0.60;;
40737;SDS011;54759;48.094;-1.628;2022-10-31T16:18:34;1.20;;;0.75;;
40737;SDS011;54759;48.094;-1.628;2022-10-31T16:21:38;1.25;;;0.70;;
40737;SDS011;54759;48.094;-1.628;2022-10-31T16:24:44;1.50;;;0.80;;
40737;SDS011;54759;48.094;-1.628;2022-10-31T16:27:50;0.95;;;0.50;;
40737;SDS011;54759;48.094;-1.628;2022-10-31T16:30:55;0.80;;;0.50;;
40737;SDS011;54759;48.094;-1.628;2022-10-31T16:34:10;2.75;;;0.85;;
40737;SDS011;54759;48.094;-1.628;2022-10-31T16:37:15;1.48;;;0.80;;
40737;SDS011;54759;48.094;-1.628;2022-10-31T16:43:19;1.10;;;0.52;;
40737;SDS011;54759;48.094;-1.628;2022-10-31T16:46:23;0.90;;;0.60;;
40737;SDS011;54759;48.094;-1.628;2022-10-31T16:49:26;1.27;;;0.50;;
40737;SDS011;54759;48.094;-1.628;2022-10-31T16:52:27;0.60;;;0.57;;
40737;SDS011;54759;48.094;-1.628;2022-10-31T16:55:44;0.65;;;0.43;;
40737;SDS011;54759;48.094;-1.628;2022-10-31T16:58:47;1.10;;;0.50;;
40737;SDS011;54759;48.094;-1.628;2022-10-31T17:01:49;1.40;;;0.55;;
40737;SDS011;54759;48.094;-1.628;2022-10-31T17:04:51;1.10;;;0.60;;
40737;SDS011;54759;48.094;-1.628;2022-10-31T17:07:57;0.88;;;0.40;;
40737;SDS011;54759;48.094;-1.628;2022-10-31T17:11:00;0.52;;;0.40;;
40737;SDS011;54759;48.094;-1.628;2022-10-31T17:14:03;0.60;;;0.45;;
40737;SDS011;54759;48.094;-1.628;2022-10-31T17:17:08;0.98;;;0.55;;
40737;SDS011;54759;48.094;-1.628;2022-10-31T17:20:16;0.70;;;0.60;;
40737;SDS011;54759;48.094;-1.628;2022-10-31T17:23:20;0.52;;;0.40;;
40737;SDS011;54759;48.094;-1.628;2022-10-31T17:26:22;0.60;;;0.40;;
40737;SDS011;54759;48.094;-1.628;2022-10-31T17:29:24;0.55;;;0.40;;
40737;SDS011;54759;48.094;-1.628;2022-10-31T17:35:27;0.70;;;0.40;;
40737;SDS011;54759;48.094;-1.628;2022-10-31T17:38:29;0.60;;;0.38;;
40737;SDS011;54759;48.094;-1.628;2022-10-31T17:41:32;0.63;;;0.40;;
40737;SDS011;54759;48.094;-1.628;2022-10-31T17:44:33;0.75;;;0.43;;
40737;SDS011;54759;48.094;-1.628;2022-10-31T17:47:35;0.98;;;0.45;;
40737;SDS011;54759;48.094;-1.628;2022-10-31T17:50:37;0.50;;;0.50;;
40737;SDS011;54759;48.094;-1.628;2022-10-31T17:53:40;0.40;;;0.30;;
40737;SDS011;54759;48.094;-1.628;2022-10-31T17:56:43;0.45;;;0.40;;
40737;SDS011;54759;48.094;-1.628;2022-10-31T17:59:44;0.73;;;0.52;;
40737;SDS011;54759;48.094;-1.628;2022-10-31T18:02:46;0.40;;;0.38;;
40737;SDS011;54759;48.094;-1.628;2022-10-31T18:05:55;0.60;;;0.40;;
40737;SDS011;54759;48.094;-1.628;2022-10-31T18:09:00;0.50;;;0.30;;
40737;SDS011;54759;48.094;-1.628;2022-10-31T18:12:03;0.30;;;0.30;;
40737;SDS011;54759;48.094;-1.628;2022-10-31T18:15:05;0.70;;;0.40;;
40737;SDS011;54759;48.094;-1.628;2022-10-31T18:18:07;0.35;;;0.30;;
40737;SDS011;54759;48.094;-1.628;2022-10-31T18:24:10;0.25;;;0.22;;
40737;SDS011;54759;48.094;-1.628;2022-10-31T18:27:12;0.43;;;0.32;;
40737;SDS011;54759;48.094;-1.628;2022-10-31T18:30:14;0.50;;;0.30;;
40737;SDS011;54759;48.094;-1.628;2022-10-31T18:33:15;0.40;;;0.25;;
40737;SDS011;54759;48.094;-1.628;2022-10-31T18:36:17;0.60;;;0.40;;
40737;SDS011;54759;48.094;-1.628;2022-10-31T18:39:19;0.60;;;0.47;;
40737;SDS011;54759;48.094;-1.628;2022-10-31T18:42:21;0.30;;;0.30;;
40737;SDS011;54759;48.094;-1.628;2022-10-31T18:45:22;0.52;;;0.25;;
40737;SDS011;54759;48.094;-1.628;2022-10-31T18:48:44;0.20;;;0.20;;
40737;SDS011;54759;48.094;-1.628;2022-10-31T18:51:46;0.40;;;0.38;;
40737;SDS011;54759;48.094;-1.628;2022-10-31T18:54:47;0.70;;;0.38;;
40737;SDS011;54759;48.094;-1.628;2022-10-31T18:57:49;0.30;;;0.30;;
40737;SDS011;54759;48.094;-1.628;2022-10-31T19:00:51;0.20;;;0.17;;
40737;SDS011;54759;48.094;-1.628;2022-10-31T19:03:53;0.30;;;0.30;;
40737;SDS011;54759;48.094;-1.628;2022-10-31T19:06:55;0.60;;;0.40;;
40737;SDS011;54759;48.094;-1.628;2022-10-31T19:09:57;0.30;;;0.17;;
40737;SDS011;54759;48.094;-1.628;2022-10-31T19:16:03;0.30;;;0.30;;